sensor_id;sensor_type;location;lat;lon;timestamp;pressure;altitude;pressure_sealevel;temperature;humidity
65685;BME280;52405;50.844;-1.062;2022-07-23T00:02:01;102038.94;;;19.02;68.58
65685;BME280;52405;50.844;-1.062;2022-07-23T00:04:26;102038.94;;;19.02;68.50
65685;BME280;52405;50.844;-1.062;2022-07-23T00:06:52;102028.22;;;18.93;68.63
65685;BME280;52405;50.844;-1.062;2022-07-23T00:09:17;102038.78;;;18.94;68.72
65685;BME280;52405;50.844;-1.062;2022-07-23T00:11:43;102002.41;;;18.78;68.13
65685;BME280;52405;50.844;-1.062;2022-07-23T00:14:08;102020.25;;;18.90;68.18
65685;BME280;52405;50.844;-1.062;2022-07-23T00:16:34;102035.16;;;18.89;68.50
65685;BME280;52405;50.844;-1.062;2022-07-23T00:18:59;102024.56;;;18.87;67.99
65685;BME280;52405;50.844;-1.062;2022-07-23T00:21:26;102017.50;;;18.85;68.56
65685;BME280;52405;50.844;-1.062;2022-07-23T00:23:52;102019.19;;;18.81;68.71
65685;BME280;52405;50.844;-1.062;2022-07-23T00:26:17;102022.53;;;18.76;68.49
65685;BME280;52405;50.844;-1.062;2022-07-23T00:28:43;102030.41;;;18.74;68.12
65685;BME280;52405;50.844;-1.062;2022-07-23T00:31:08;102028.59;;;18.72;68.67
65685;BME280;52405;50.844;-1.062;2022-07-23T00:33:34;102032.00;;;18.67;68.39
65685;BME280;52405;50.844;-1.062;2022-07-23T00:36:00;102031.06;;;18.65;68.57
65685;BME280;52405;50.844;-1.062;2022-07-23T00:38:25;102034.47;;;18.61;68.90
65685;BME280;52405;50.844;-1.062;2022-07-23T00:40:51;102045.88;;;18.60;69.01
65685;BME280;52405;50.844;-1.062;2022-07-23T00:43:16;102044.09;;;18.59;68.57
65685;BME280;52405;50.844;-1.062;2022-07-23T00:45:42;102038.78;;;18.58;68.67
65685;BME280;52405;50.844;-1.062;2022-07-23T00:48:07;102035.22;;;18.56;69.19
65685;BME280;52405;50.844;-1.062;2022-07-23T00:50:33;102040.41;;;18.53;68.99
65685;BME280;52405;50.844;-1.062;2022-07-23T00:52:58;102039.47;;;18.50;68.81
65685;BME280;52405;50.844;-1.062;2022-07-23T00:55:24;102042.94;;;18.48;69.29
65685;BME280;52405;50.844;-1.062;2022-07-23T00:57:50;102034.94;;;18.43;69.39
65685;BME280;52405;50.844;-1.062;2022-07-23T01:00:17;102033.13;;;18.41;69.00
65685;BME280;52405;50.844;-1.062;2022-07-23T01:02:42;102040.94;;;18.38;69.18
65685;BME280;52405;50.844;-1.062;2022-07-23T01:05:08;102047.94;;;18.37;69.48
65685;BME280;52405;50.844;-1.062;2022-07-23T01:07:34;102043.56;;;18.36;69.81
65685;BME280;52405;50.844;-1.062;2022-07-23T01:10:00;102047.00;;;18.35;69.76
65685;BME280;52405;50.844;-1.062;2022-07-23T01:12:25;102049.56;;;18.32;69.59
65685;BME280;52405;50.844;-1.062;2022-07-23T01:14:55;102045.09;;;18.28;69.78
65685;BME280;52405;50.844;-1.062;2022-07-23T01:17:21;102053.78;;;18.25;69.31
65685;BME280;52405;50.844;-1.062;2022-07-23T01:19:46;102049.34;;;18.23;69.15
65685;BME280;52405;50.844;-1.062;2022-07-23T01:22:13;102049.28;;;18.20;69.46
65685;BME280;52405;50.844;-1.062;2022-07-23T01:24:40;102044.75;;;18.16;69.21
65685;BME280;52405;50.844;-1.062;2022-07-23T01:27:05;102051.78;;;18.15;68.46
65685;BME280;52405;50.844;-1.062;2022-07-23T01:29:31;102043.66;;;18.06;68.71
65685;BME280;52405;50.844;-1.062;2022-07-23T01:31:56;102056.00;;;18.10;68.63
65685;BME280;52405;50.844;-1.062;2022-07-23T01:34:22;102038.28;;;18.01;68.05
65685;BME280;52405;50.844;-1.062;2022-07-23T01:36:47;102043.72;;;18.09;67.97
65685;BME280;52405;50.844;-1.062;2022-07-23T01:39:13;102046.31;;;18.07;67.96
65685;BME280;52405;50.844;-1.062;2022-07-23T01:41:39;102051.66;;;18.10;68.10
65685;BME280;52405;50.844;-1.062;2022-07-23T01:44:04;102020.63;;;17.97;67.96
65685;BME280;52405;50.844;-1.062;2022-07-23T01:46:30;102047.38;;;18.16;67.16
65685;BME280;52405;50.844;-1.062;2022-07-23T01:48:55;102047.47;;;18.19;67.08
65685;BME280;52405;50.844;-1.062;2022-07-23T01:51:21;102048.41;;;18.21;67.20
65685;BME280;52405;50.844;-1.062;2022-07-23T01:53:46;102047.56;;;18.22;67.70
65685;BME280;52405;50.844;-1.062;2022-07-23T01:56:12;102040.50;;;18.21;66.77
65685;BME280;52405;50.844;-1.062;2022-07-23T01:58:40;102037.00;;;18.20;67.03
65685;BME280;52405;50.844;-1.062;2022-07-23T02:01:05;102039.53;;;18.17;66.71
65685;BME280;52405;50.844;-1.062;2022-07-23T02:03:31;102040.38;;;18.15;66.14
65685;BME280;52405;50.844;-1.062;2022-07-23T02:05:56;102034.16;;;18.11;66.14
65685;BME280;52405;50.844;-1.062;2022-07-23T02:08:22;102038.44;;;18.07;66.84
65685;BME280;52405;50.844;-1.062;2022-07-23T02:10:48;102041.88;;;18.05;66.86
65685;BME280;52405;50.844;-1.062;2022-07-23T02:13:14;102032.97;;;18.00;66.13
65685;BME280;52405;50.844;-1.062;2022-07-23T02:15:40;102036.41;;;17.97;66.43
65685;BME280;52405;50.844;-1.062;2022-07-23T02:18:05;102030.16;;;17.92;66.86
65685;BME280;52405;50.844;-1.062;2022-07-23T02:20:31;102032.69;;;17.89;66.46
65685;BME280;52405;50.844;-1.062;2022-07-23T02:22:56;102040.50;;;17.86;66.25
65685;BME280;52405;50.844;-1.062;2022-07-23T02:25:22;102031.53;;;17.79;66.99
65685;BME280;52405;50.844;-1.062;2022-07-23T02:27:48;102033.19;;;17.76;66.21
65685;BME280;52405;50.844;-1.062;2022-07-23T02:30:13;102039.19;;;17.71;66.16
65685;BME280;52405;50.844;-1.062;2022-07-23T02:32:39;102027.63;;;17.65;66.92
65685;BME280;52405;50.844;-1.062;2022-07-23T02:35:05;102039.91;;;17.66;67.35
65685;BME280;52405;50.844;-1.062;2022-07-23T02:37:31;102038.94;;;17.62;67.30
65685;BME280;52405;50.844;-1.062;2022-07-23T02:39:56;102038.88;;;17.59;66.48
65685;BME280;52405;50.844;-1.062;2022-07-23T02:42:22;102043.19;;;17.57;66.70
65685;BME280;52405;50.844;-1.062;2022-07-23T02:44:49;102032.50;;;17.51;66.92
65685;BME280;52405;50.844;-1.062;2022-07-23T02:47:15;102043.78;;;17.47;67.15
65685;BME280;52405;50.844;-1.062;2022-07-23T02:49:41;102040.16;;;17.43;67.48
65685;BME280;52405;50.844;-1.062;2022-07-23T02:52:07;102045.38;;;17.42;66.91
65685;BME280;52405;50.844;-1.062;2022-07-23T02:54:33;102047.91;;;17.39;67.24
65685;BME280;52405;50.844;-1.062;2022-07-23T02:56:58;102046.97;;;17.37;66.54
65685;BME280;52405;50.844;-1.062;2022-07-23T02:59:24;102052.16;;;17.33;67.21
65685;BME280;52405;50.844;-1.062;2022-07-23T03:01:49;102052.06;;;17.30;67.34
65685;BME280;52405;50.844;-1.062;2022-07-23T03:04:15;102052.88;;;17.29;67.52
65685;BME280;52405;50.844;-1.062;2022-07-23T03:06:40;102051.94;;;17.27;67.51
65685;BME280;52405;50.844;-1.062;2022-07-23T03:09:06;102048.41;;;17.25;67.26
65685;BME280;52405;50.844;-1.062;2022-07-23T03:11:31;102057.13;;;17.24;67.07
65685;BME280;52405;50.844;-1.062;2022-07-23T03:13:57;102049.16;;;17.21;67.41
65685;BME280;52405;50.844;-1.062;2022-07-23T03:16:22;102037.72;;;17.19;67.07
65685;BME280;52405;50.844;-1.062;2022-07-23T03:18:48;102036.84;;;17.20;66.56
65685;BME280;52405;50.844;-1.062;2022-07-23T03:21:14;102041.13;;;17.17;66.77
65685;BME280;52405;50.844;-1.062;2022-07-23T03:23:40;102041.00;;;17.12;67.04
65685;BME280;52405;50.844;-1.062;2022-07-23T03:26:06;102043.47;;;17.06;67.21
65685;BME280;52405;50.844;-1.062;2022-07-23T03:28:31;102058.41;;;17.08;66.82
65685;BME280;52405;50.844;-1.062;2022-07-23T03:30:57;102053.97;;;17.06;67.49
65685;BME280;52405;50.844;-1.062;2022-07-23T03:33:22;102045.97;;;17.03;66.67
65685;BME280;52405;50.844;-1.062;2022-07-23T03:35:48;102048.44;;;16.97;67.38
65685;BME280;52405;50.844;-1.062;2022-07-23T03:38:14;102052.81;;;16.98;66.88
65685;BME280;52405;50.844;-1.062;2022-07-23T03:40:40;102055.34;;;16.94;66.87
65685;BME280;52405;50.844;-1.062;2022-07-23T03:43:05;102055.31;;;16.93;67.45
65685;BME280;52405;50.844;-1.062;2022-07-23T03:45:31;102053.47;;;16.90;67.11
65685;BME280;52405;50.844;-1.062;2022-07-23T03:47:57;102049.91;;;16.88;66.83
65685;BME280;52405;50.844;-1.062;2022-07-23T03:50:23;102049.81;;;16.85;67.16
65685;BME280;52405;50.844;-1.062;2022-07-23T03:52:48;102053.34;;;16.86;67.54
65685;BME280;52405;50.844;-1.062;2022-07-23T03:55:14;102058.41;;;16.81;66.91
65685;BME280;52405;50.844;-1.062;2022-07-23T03:57:40;102041.72;;;16.79;67.25
65685;BME280;52405;50.844;-1.062;2022-07-23T04:00:07;102045.97;;;16.75;67.35
65685;BME280;52405;50.844;-1.062;2022-07-23T04:02:35;102046.09;;;16.79;66.89
65685;BME280;52405;50.844;-1.062;2022-07-23T04:05:01;102050.41;;;16.76;66.65
65685;BME280;52405;50.844;-1.062;2022-07-23T04:07:26;102030.81;;;16.65;67.11
65685;BME280;52405;50.844;-1.062;2022-07-23T04:09:52;102051.13;;;16.72;66.92
65685;BME280;52405;50.844;-1.062;2022-07-23T04:12:18;102055.38;;;16.69;67.17
65685;BME280;52405;50.844;-1.062;2022-07-23T04:14:43;102062.31;;;16.67;67.47
65685;BME280;52405;50.844;-1.062;2022-07-23T04:17:09;102065.78;;;16.66;67.92
65685;BME280;52405;50.844;-1.062;2022-07-23T04:19:34;102065.75;;;16.64;68.16
65685;BME280;52405;50.844;-1.062;2022-07-23T04:22:05;102063.94;;;16.62;68.02
65685;BME280;52405;50.844;-1.062;2022-07-23T04:24:31;102062.13;;;16.61;68.25
65685;BME280;52405;50.844;-1.062;2022-07-23T04:26:57;102004.13;;;16.24;67.96
65685;BME280;52405;50.844;-1.062;2022-07-23T04:29:23;102072.56;;;16.59;67.30
65685;BME280;52405;50.844;-1.062;2022-07-23T04:31:48;102069.06;;;16.58;68.25
65685;BME280;52405;50.844;-1.062;2022-07-23T04:34:14;102064.69;;;16.59;68.14
65685;BME280;52405;50.844;-1.062;2022-07-23T04:36:39;102066.44;;;16.58;67.52
65685;BME280;52405;50.844;-1.062;2022-07-23T04:39:05;102062.94;;;16.58;68.12
65685;BME280;52405;50.844;-1.062;2022-07-23T04:41:30;102067.25;;;16.57;68.03
65685;BME280;52405;50.844;-1.062;2022-07-23T04:43:56;102072.50;;;16.57;68.07
65685;BME280;52405;50.844;-1.062;2022-07-23T04:46:21;102067.25;;;16.57;68.28
65685;BME280;52405;50.844;-1.062;2022-07-23T04:48:47;102065.56;;;16.58;67.85
65685;BME280;52405;50.844;-1.062;2022-07-23T04:51:12;102069.94;;;16.59;67.53
65685;BME280;52405;50.844;-1.062;2022-07-23T04:53:38;102072.63;;;16.61;67.65
65685;BME280;52405;50.844;-1.062;2022-07-23T04:56:04;102074.50;;;16.65;67.83
65685;BME280;52405;50.844;-1.062;2022-07-23T04:58:30;102074.50;;;16.65;67.97
65685;BME280;52405;50.844;-1.062;2022-07-23T05:00:57;102073.03;;;16.73;67.50
65685;BME280;52405;50.844;-1.062;2022-07-23T05:03:23;102069.66;;;16.77;68.13
65685;BME280;52405;50.844;-1.062;2022-07-23T05:05:49;102078.47;;;16.79;67.51
65685;BME280;52405;50.844;-1.062;2022-07-23T05:08:15;102081.28;;;16.84;67.83
65685;BME280;52405;50.844;-1.062;2022-07-23T05:10:40;102074.41;;;16.89;67.90
65685;BME280;52405;50.844;-1.062;2022-07-23T05:13:06;102084.19;;;16.93;68.00
65685;BME280;52405;50.844;-1.062;2022-07-23T05:15:31;102086.00;;;16.95;68.01
65685;BME280;52405;50.844;-1.062;2022-07-23T05:17:57;102087.81;;;16.98;67.10
65685;BME280;52405;50.844;-1.062;2022-07-23T05:20:22;102076.53;;;17.01;67.09
65685;BME280;52405;50.844;-1.062;2022-07-23T05:22:48;102078.31;;;17.02;66.89
65685;BME280;52405;50.844;-1.062;2022-07-23T05:25:13;102071.38;;;17.04;67.13
65685;BME280;52405;50.844;-1.062;2022-07-23T05:27:39;102067.91;;;17.05;66.94
65685;BME280;52405;50.844;-1.062;2022-07-23T05:30:05;102064.47;;;17.07;66.65
65685;BME280;52405;50.844;-1.062;2022-07-23T05:32:32;102067.16;;;17.09;66.20
65685;BME280;52405;50.844;-1.062;2022-07-23T05:34:57;102077.75;;;17.12;66.05
65685;BME280;52405;50.844;-1.062;2022-07-23T05:37:23;102070.75;;;17.12;65.91
65685;BME280;52405;50.844;-1.062;2022-07-23T05:39:48;102064.47;;;17.07;66.15
65685;BME280;52405;50.844;-1.062;2022-07-23T05:42:14;102070.91;;;17.17;65.85
65685;BME280;52405;50.844;-1.062;2022-07-23T05:44:39;102086.75;;;17.20;65.88
65685;BME280;52405;50.844;-1.062;2022-07-23T05:47:05;102079.03;;;17.25;65.86
65685;BME280;52405;50.844;-1.062;2022-07-23T05:49:30;102080.00;;;17.28;65.39
65685;BME280;52405;50.844;-1.062;2022-07-23T05:51:56;102046.22;;;17.10;64.85
65685;BME280;52405;50.844;-1.062;2022-07-23T05:54:21;102067.84;;;17.32;64.68
65685;BME280;52405;50.844;-1.062;2022-07-23T05:56:47;102083.94;;;17.43;64.99
65685;BME280;52405;50.844;-1.062;2022-07-23T05:59:12;102076.94;;;17.43;64.97
65685;BME280;52405;50.844;-1.062;2022-07-23T06:01:39;102076.31;;;17.52;64.83
65685;BME280;52405;50.844;-1.062;2022-07-23T06:04:05;102073.03;;;17.59;64.65
65685;BME280;52405;50.844;-1.062;2022-07-23T06:06:31;102060.09;;;17.67;64.30
65685;BME280;52405;50.844;-1.062;2022-07-23T06:08:56;102073.44;;;17.75;64.08
65685;BME280;52405;50.844;-1.062;2022-07-23T06:11:22;102079.03;;;17.85;63.10
65685;BME280;52405;50.844;-1.062;2022-07-23T06:13:47;102073.19;;;17.97;63.04
65685;BME280;52405;50.844;-1.062;2022-07-23T06:16:13;102078.72;;;18.41;63.45
65685;BME280;52405;50.844;-1.062;2022-07-23T06:18:38;102059.38;;;19.12;61.66
65685;BME280;52405;50.844;-1.062;2022-07-23T06:21:04;102079.75;;;20.08;60.15
65685;BME280;52405;50.844;-1.062;2022-07-23T06:23:29;102071.25;;;20.77;57.09
65685;BME280;52405;50.844;-1.062;2022-07-23T06:25:55;102064.69;;;21.10;55.13
65685;BME280;52405;50.844;-1.062;2022-07-23T06:28:20;102069.28;;;21.28;53.96
65685;BME280;52405;50.844;-1.062;2022-07-23T06:30:46;102070.22;;;21.30;53.10
65685;BME280;52405;50.844;-1.062;2022-07-23T06:33:11;102067.56;;;21.29;52.87
65685;BME280;52405;50.844;-1.062;2022-07-23T06:35:37;102067.66;;;21.38;52.65
65685;BME280;52405;50.844;-1.062;2022-07-23T06:38:03;102069.03;;;21.77;52.19
65685;BME280;52405;50.844;-1.062;2022-07-23T06:40:28;102069.72;;;22.51;50.82
65685;BME280;52405;50.844;-1.062;2022-07-23T06:42:54;102072.97;;;23.48;49.47
65685;BME280;52405;50.844;-1.062;2022-07-23T06:45:19;102070.47;;;24.39;47.21
65685;BME280;52405;50.844;-1.062;2022-07-23T06:47:45;102065.94;;;25.23;45.39
65685;BME280;52405;50.844;-1.062;2022-07-23T06:50:10;102073.50;;;26.06;42.81
65685;BME280;52405;50.844;-1.062;2022-07-23T06:52:36;102065.72;;;26.85;41.69
65685;BME280;52405;50.844;-1.062;2022-07-23T06:55:02;102060.41;;;27.59;39.84
65685;BME280;52405;50.844;-1.062;2022-07-23T06:57:27;102068.31;;;28.23;38.44
65685;BME280;52405;50.844;-1.062;2022-07-23T06:59:53;102061.94;;;28.83;37.36
65685;BME280;52405;50.844;-1.062;2022-07-23T07:02:18;102059.91;;;29.41;36.17
65685;BME280;52405;50.844;-1.062;2022-07-23T07:04:44;102069.13;;;30.06;34.65
65685;BME280;52405;50.844;-1.062;2022-07-23T07:07:10;102073.16;;;30.60;34.27
65685;BME280;52405;50.844;-1.062;2022-07-23T07:09:37;102075.50;;;31.05;33.12
65685;BME280;52405;50.844;-1.062;2022-07-23T07:12:03;102076.28;;;31.40;31.55
65685;BME280;52405;50.844;-1.062;2022-07-23T07:14:29;102074.28;;;31.76;30.82
65685;BME280;52405;50.844;-1.062;2022-07-23T07:16:54;102085.09;;;32.03;29.96
65685;BME280;52405;50.844;-1.062;2022-07-23T07:19:20;102086.38;;;32.18;29.75
65685;BME280;52405;50.844;-1.062;2022-07-23T07:21:45;102095.22;;;32.21;29.73
65685;BME280;52405;50.844;-1.062;2022-07-23T07:24:11;102082.81;;;32.17;28.69
65685;BME280;52405;50.844;-1.062;2022-07-23T07:26:36;102089.03;;;32.19;29.18
65685;BME280;52405;50.844;-1.062;2022-07-23T07:29:03;102087.66;;;32.33;29.31
65685;BME280;52405;50.844;-1.062;2022-07-23T07:31:29;102090.00;;;32.43;28.50
65685;BME280;52405;50.844;-1.062;2022-07-23T07:33:54;102095.63;;;32.62;28.50
65685;BME280;52405;50.844;-1.062;2022-07-23T07:36:22;102090.97;;;32.93;28.17
65685;BME280;52405;50.844;-1.062;2022-07-23T07:38:48;102082.81;;;33.19;28.21
65685;BME280;52405;50.844;-1.062;2022-07-23T07:41:13;102079.25;;;33.42;26.62
65685;BME280;52405;50.844;-1.062;2022-07-23T07:43:39;102085.34;;;33.71;26.70
65685;BME280;52405;50.844;-1.062;2022-07-23T07:46:05;102083.81;;;34.08;26.21
65685;BME280;52405;50.844;-1.062;2022-07-23T07:48:35;102084.09;;;34.45;25.30
65685;BME280;52405;50.844;-1.062;2022-07-23T07:51:01;102082.03;;;34.72;24.55
65685;BME280;52405;50.844;-1.062;2022-07-23T07:53:26;102079.31;;;34.92;24.56
65685;BME280;52405;50.844;-1.062;2022-07-23T07:55:52;102080.00;;;35.17;24.50
65685;BME280;52405;50.844;-1.062;2022-07-23T07:58:17;102075.13;;;35.44;25.15
65685;BME280;52405;50.844;-1.062;2022-07-23T08:00:43;102075.34;;;35.58;24.55
65685;BME280;52405;50.844;-1.062;2022-07-23T08:03:08;102075.88;;;35.47;24.24
65685;BME280;52405;50.844;-1.062;2022-07-23T08:05:34;102075.44;;;35.38;24.48
65685;BME280;52405;50.844;-1.062;2022-07-23T08:07:59;102081.66;;;35.21;24.19
65685;BME280;52405;50.844;-1.062;2022-07-23T08:10:26;102077.00;;;35.04;24.54
65685;BME280;52405;50.844;-1.062;2022-07-23T08:12:54;102082.03;;;34.92;25.30
65685;BME280;52405;50.844;-1.062;2022-07-23T08:15:22;102057.56;;;34.95;24.18
65685;BME280;52405;50.844;-1.062;2022-07-23T08:17:48;102083.53;;;35.19;24.38
65685;BME280;52405;50.844;-1.062;2022-07-23T08:20:16;102088.19;;;35.15;24.49
65685;BME280;52405;50.844;-1.062;2022-07-23T08:22:44;102085.56;;;35.32;24.67
65685;BME280;52405;50.844;-1.062;2022-07-23T08:25:10;102081.72;;;35.38;24.28
65685;BME280;52405;50.844;-1.062;2022-07-23T08:27:35;102080.25;;;35.50;24.56
65685;BME280;52405;50.844;-1.062;2022-07-23T08:30:01;102075.94;;;35.65;24.18
65685;BME280;52405;50.844;-1.062;2022-07-23T08:32:27;102078.41;;;35.88;23.48
65685;BME280;52405;50.844;-1.062;2022-07-23T08:34:52;102077.84;;;36.18;23.20
65685;BME280;52405;50.844;-1.062;2022-07-23T08:37:18;102080.22;;;36.24;23.00
65685;BME280;52405;50.844;-1.062;2022-07-23T08:39:43;102082.56;;;36.32;23.34
65685;BME280;52405;50.844;-1.062;2022-07-23T08:42:09;102081.91;;;36.27;22.86
65685;BME280;52405;50.844;-1.062;2022-07-23T08:44:35;102078.03;;;36.14;22.90
65685;BME280;52405;50.844;-1.062;2022-07-23T08:47:01;102085.66;;;35.88;23.47
65685;BME280;52405;50.844;-1.062;2022-07-23T08:49:27;102084.28;;;35.79;22.74
65685;BME280;52405;50.844;-1.062;2022-07-23T08:51:55;102067.75;;;35.66;23.19
65685;BME280;52405;50.844;-1.062;2022-07-23T08:54:22;102065.78;;;35.51;23.46
65685;BME280;52405;50.844;-1.062;2022-07-23T08:56:48;102073.75;;;35.54;23.05
65685;BME280;52405;50.844;-1.062;2022-07-23T08:59:14;102073.75;;;35.54;23.20
65685;BME280;52405;50.844;-1.062;2022-07-23T09:01:39;102078.78;;;35.62;23.58
65685;BME280;52405;50.844;-1.062;2022-07-23T09:04:05;102074.66;;;35.74;23.19
65685;BME280;52405;50.844;-1.062;2022-07-23T09:06:31;102074.44;;;35.96;22.32
65685;BME280;52405;50.844;-1.062;2022-07-23T09:08:56;102073.00;;;36.25;21.86
65685;BME280;52405;50.844;-1.062;2022-07-23T09:11:22;102075.47;;;36.47;21.97
65685;BME280;52405;50.844;-1.062;2022-07-23T09:13:52;102068.53;;;36.76;21.04
65685;BME280;52405;50.844;-1.062;2022-07-23T09:16:30;102073.03;;;36.93;21.19
65685;BME280;52405;50.844;-1.062;2022-07-23T09:19:04;102075.75;;;37.09;21.10
65685;BME280;52405;50.844;-1.062;2022-07-23T09:21:32;102083.50;;;37.17;21.13
65685;BME280;52405;50.844;-1.062;2022-07-23T09:26:35;102087.06;;;36.84;20.91
65685;BME280;52405;50.844;-1.062;2022-07-23T09:34:31;102087.38;;;36.60;20.56
65685;BME280;52405;50.844;-1.062;2022-07-23T09:37:18;102092.31;;;36.52;20.94
65685;BME280;52405;50.844;-1.062;2022-07-23T09:39:46;102101.63;;;36.46;20.85
65685;BME280;52405;50.844;-1.062;2022-07-23T09:42:19;102096.22;;;36.46;20.22
65685;BME280;52405;50.844;-1.062;2022-07-23T09:44:48;102083.41;;;36.50;20.54
65685;BME280;52405;50.844;-1.062;2022-07-23T09:47:14;102106.06;;;36.65;19.89
65685;BME280;52405;50.844;-1.062;2022-07-23T09:49:40;102104.34;;;36.64;19.66
65685;BME280;52405;50.844;-1.062;2022-07-23T09:52:05;102101.94;;;36.58;20.04
65685;BME280;52405;50.844;-1.062;2022-07-23T09:54:37;102098.38;;;36.40;20.74
65685;BME280;52405;50.844;-1.062;2022-07-23T09:57:06;102099.47;;;36.36;19.95
65685;BME280;52405;50.844;-1.062;2022-07-23T09:59:36;102097.50;;;36.39;19.99
65685;BME280;52405;50.844;-1.062;2022-07-23T10:02:03;102085.94;;;36.36;20.77
65685;BME280;52405;50.844;-1.062;2022-07-23T10:04:31;102088.97;;;36.30;20.56
65685;BME280;52405;50.844;-1.062;2022-07-23T10:06:59;102090.91;;;36.27;20.69
65685;BME280;52405;50.844;-1.062;2022-07-23T10:09:28;102090.31;;;36.21;20.82
65685;BME280;52405;50.844;-1.062;2022-07-23T10:11:56;102083.75;;;36.07;20.42
65685;BME280;52405;50.844;-1.062;2022-07-23T10:14:43;102067.34;;;35.76;21.24
65685;BME280;52405;50.844;-1.062;2022-07-23T10:17:08;102092.16;;;35.65;21.66
65685;BME280;52405;50.844;-1.062;2022-07-23T10:19:34;102086.91;;;35.43;20.87
65685;BME280;52405;50.844;-1.062;2022-07-23T10:22:08;102089.75;;;35.00;21.86
65685;BME280;52405;50.844;-1.062;2022-07-23T10:36:44;102084.16;;;33.55;24.13
65685;BME280;52405;50.844;-1.062;2022-07-23T10:39:20;102077.78;;;33.34;24.71
65685;BME280;52405;50.844;-1.062;2022-07-23T10:41:47;102073.97;;;33.16;24.73
65685;BME280;52405;50.844;-1.062;2022-07-23T10:44:19;102061.13;;;32.99;24.14
65685;BME280;52405;50.844;-1.062;2022-07-23T10:47:02;102063.72;;;32.77;25.84
65685;BME280;52405;50.844;-1.062;2022-07-23T10:49:34;102047.59;;;32.52;25.25
65685;BME280;52405;50.844;-1.062;2022-07-23T10:52:20;102053.28;;;32.42;26.59
65685;BME280;52405;50.844;-1.062;2022-07-23T10:54:53;102048.88;;;32.40;25.99
65685;BME280;52405;50.844;-1.062;2022-07-23T10:57:26;102049.47;;;32.23;26.30
65685;BME280;52405;50.844;-1.062;2022-07-23T11:02:44;102049.94;;;32.09;26.58
65685;BME280;52405;50.844;-1.062;2022-07-23T11:05:14;102045.66;;;32.03;27.20
65685;BME280;52405;50.844;-1.062;2022-07-23T11:10:35;102061.63;;;32.08;26.18
65685;BME280;52405;50.844;-1.062;2022-07-23T11:13:35;102060.38;;;31.90;26.75
65685;BME280;52405;50.844;-1.062;2022-07-23T11:37:04;102062.09;;;31.35;28.69
65685;BME280;52405;50.844;-1.062;2022-07-23T11:39:31;102055.94;;;31.31;29.15
65685;BME280;52405;50.844;-1.062;2022-07-23T11:41:58;102058.75;;;31.26;29.52
65685;BME280;52405;50.844;-1.062;2022-07-23T11:44:32;102067.75;;;31.25;29.29
65685;BME280;52405;50.844;-1.062;2022-07-23T11:47:09;102062.63;;;31.18;30.23
65685;BME280;52405;50.844;-1.062;2022-07-23T11:49:35;102054.91;;;31.05;30.66
65685;BME280;52405;50.844;-1.062;2022-07-23T11:52:14;102052.72;;;30.87;30.58
65685;BME280;52405;50.844;-1.062;2022-07-23T11:57:13;102055.78;;;30.73;30.93
65685;BME280;52405;50.844;-1.062;2022-07-23T11:59:39;102052.41;;;30.66;31.34
65685;BME280;52405;50.844;-1.062;2022-07-23T12:02:05;102058.72;;;30.64;31.93
65685;BME280;52405;50.844;-1.062;2022-07-23T12:04:41;102056.09;;;30.62;32.34
65685;BME280;52405;50.844;-1.062;2022-07-23T12:07:33;102054.59;;;30.52;31.77
65685;BME280;52405;50.844;-1.062;2022-07-23T12:10:09;102065.41;;;30.47;32.16
65685;BME280;52405;50.844;-1.062;2022-07-23T12:12:56;102061.13;;;30.40;32.20
65685;BME280;52405;50.844;-1.062;2022-07-23T12:15:28;102035.81;;;30.16;32.62
65685;BME280;52405;50.844;-1.062;2022-07-23T12:17:55;102064.50;;;30.12;32.65
65685;BME280;52405;50.844;-1.062;2022-07-23T12:20:23;102066.53;;;30.03;32.57
65685;BME280;52405;50.844;-1.062;2022-07-23T12:22:52;102059.56;;;29.95;32.08
65685;BME280;52405;50.844;-1.062;2022-07-23T12:25:20;102062.44;;;29.88;32.81
65685;BME280;52405;50.844;-1.062;2022-07-23T12:27:57;102065.44;;;29.72;32.68
65685;BME280;52405;50.844;-1.062;2022-07-23T12:30:49;102071.94;;;29.60;33.23
65685;BME280;52405;50.844;-1.062;2022-07-23T12:33:39;102074.84;;;29.50;33.08
65685;BME280;52405;50.844;-1.062;2022-07-23T12:36:07;102070.63;;;29.39;33.43
65685;BME280;52405;50.844;-1.062;2022-07-23T12:38:46;102066.34;;;29.31;34.18
65685;BME280;52405;50.844;-1.062;2022-07-23T12:41:12;102066.56;;;29.21;33.89
65685;BME280;52405;50.844;-1.062;2022-07-23T12:43:40;102055.22;;;29.07;34.08
65685;BME280;52405;50.844;-1.062;2022-07-23T12:46:09;102056.38;;;28.94;34.82
65685;BME280;52405;50.844;-1.062;2022-07-23T12:48:49;102044.84;;;28.92;35.44
65685;BME280;52405;50.844;-1.062;2022-07-23T12:51:21;102050.09;;;28.96;35.15
65685;BME280;52405;50.844;-1.062;2022-07-23T12:53:52;102048.38;;;28.92;35.46
65685;BME280;52405;50.844;-1.062;2022-07-23T12:56:30;102054.66;;;28.91;35.04
65685;BME280;52405;50.844;-1.062;2022-07-23T12:58:58;102049.38;;;28.88;35.83
65685;BME280;52405;50.844;-1.062;2022-07-23T13:01:34;102048.56;;;28.84;35.77
65685;BME280;52405;50.844;-1.062;2022-07-23T13:04:20;102058.50;;;28.76;36.16
65685;BME280;52405;50.844;-1.062;2022-07-23T13:06:49;102050.66;;;28.67;36.20
65685;BME280;52405;50.844;-1.062;2022-07-23T13:09:17;102055.16;;;28.65;35.75
65685;BME280;52405;50.844;-1.062;2022-07-23T13:11:44;102057.84;;;28.63;35.80
65685;BME280;52405;50.844;-1.062;2022-07-23T13:14:10;102055.06;;;28.70;36.28
65685;BME280;52405;50.844;-1.062;2022-07-23T13:16:37;102057.63;;;28.76;35.81
65685;BME280;52405;50.844;-1.062;2022-07-23T13:19:03;102068.28;;;28.79;36.00
65685;BME280;52405;50.844;-1.062;2022-07-23T13:21:28;102054.97;;;28.74;36.42
65685;BME280;52405;50.844;-1.062;2022-07-23T13:23:55;102064.72;;;28.78;36.30
65685;BME280;52405;50.844;-1.062;2022-07-23T13:26:20;102061.28;;;28.72;36.67
65685;BME280;52405;50.844;-1.062;2022-07-23T13:28:46;102067.50;;;28.71;37.33
65685;BME280;52405;50.844;-1.062;2022-07-23T13:31:13;102045.41;;;28.62;37.60